Time;durP1;ratioP1;P1;durP2;ratioP2;P2;SDS_P1;SDS_P2;PMS_P1;PMS_P2;Temp;Humidity;BMP_temperature;BMP_pressure;BME280_temperature;BME280_humidity;BME280_pressure;Samples;Min_cycle;Max_cycle;Signal;HPM_P1;HPM_P2
2022/02/16 00:02:22;;;;;;;1.75;1.17;;;11.00;99.90;;;;;;5033130;28;20052;-76
2022/02/16 00:04:48;;;;;;;0.10;0.10;;;11.00;99.90;;;;;;5034804;28;20025;-77
2022/02/16 00:07:14;;;;;;;0.52;0.52;;;11.00;99.90;;;;;;5033144;28;20444;-78
2022/02/16 00:09:39;;;;;;;0.38;0.38;;;11.00;99.90;;;;;;5033037;28;20026;-76
2022/02/16 00:12:05;;;;;;;1.08;0.80;;;11.00;99.90;;;;;;5033089;28;20028;-79
2022/02/16 00:14:31;;;;;;;0.00;0.00;;;11.00;99.90;;;;;;5033328;28;20527;-75
2022/02/16 00:16:57;;;;;;;7.53;0.55;;;11.00;99.90;;;;;;5032983;28;20057;-76
2022/02/16 00:19:23;;;;;;;1.42;1.33;;;11.00;99.90;;;;;;5032924;28;20021;-78
2022/02/16 00:21:49;;;;;;;0.28;0.28;;;11.00;99.90;;;;;;5035194;28;20484;-80
2022/02/16 00:24:15;;;;;;;0.77;0.68;;;11.00;99.90;;;;;;5033019;28;20163;-78
2022/02/16 00:26:40;;;;;;;12.82;1.90;;;11.00;99.90;;;;;;5033407;28;20124;-79
2022/02/16 00:29:06;;;;;;;1.23;0.47;;;11.00;99.90;;;;;;5035291;28;20030;-74
2022/02/16 00:31:32;;;;;;;47.58;2.50;;;11.00;99.90;;;;;;5031900;28;20029;-75
2022/02/16 00:33:57;;;;;;;3.13;2.65;;;11.10;99.90;;;;;;5021878;28;20537;-78
2022/02/16 00:36:23;;;;;;;0.28;0.28;;;11.00;99.90;;;;;;5016929;28;20022;-76
2022/02/16 00:38:49;;;;;;;10.82;4.03;;;11.00;99.90;;;;;;5038884;28;20033;-79
2022/02/16 00:41:15;;;;;;;0.00;0.00;;;11.00;99.90;;;;;;5032764;28;20473;-79
2022/02/16 00:43:40;;;;;;;0.57;0.57;;;11.00;99.90;;;;;;5033067;28;20570;-78
2022/02/16 00:46:06;;;;;;;2.28;1.02;;;11.00;99.90;;;;;;5033885;28;20088;-75
2022/02/16 00:48:32;;;;;;;5.38;2.38;;;11.10;99.90;;;;;;5031550;28;20112;-76
2022/02/16 00:50:58;;;;;;;3.33;2.22;;;11.10;99.90;;;;;;5032950;28;20535;-80
2022/02/16 00:53:24;;;;;;;1.95;0.70;;;11.00;99.90;;;;;;5031846;28;20033;-79
2022/02/16 00:55:49;;;;;;;0.22;0.22;;;11.00;99.90;;;;;;5032893;28;20029;-79
2022/02/16 00:58:15;;;;;;;1.48;1.25;;;11.00;99.90;;;;;;5032987;28;20049;-77
2022/02/16 01:00:40;;;;;;;0.00;0.00;;;11.10;99.90;;;;;;5032617;28;20079;-78
2022/02/16 01:03:06;;;;;;;0.40;0.30;;;11.00;99.90;;;;;;5033940;28;20503;-75
2022/02/16 01:05:32;;;;;;;0.03;0.03;;;11.00;99.90;;;;;;5032178;28;20025;-74
2022/02/16 01:07:57;;;;;;;0.00;0.00;;;11.00;99.90;;;;;;5030812;28;20024;-79
2022/02/16 01:10:23;;;;;;;23.88;0.52;;;11.10;99.90;;;;;;5032645;28;20029;-78
2022/02/16 01:12:49;;;;;;;0.28;0.28;;;11.10;99.90;;;;;;5031659;28;20400;-79
2022/02/16 01:15:15;;;;;;;0.25;0.25;;;11.10;99.90;;;;;;5032394;28;20040;-79
2022/02/16 01:17:41;;;;;;;0.10;0.10;;;11.00;99.90;;;;;;5032528;28;20026;-77
2022/02/16 01:20:07;;;;;;;2.00;1.85;;;11.10;99.90;;;;;;5037513;28;20106;-78
2022/02/16 01:22:33;;;;;;;0.22;0.22;;;11.10;99.90;;;;;;5036554;28;20025;-75
2022/02/16 01:24:59;;;;;;;0.38;0.30;;;11.10;99.90;;;;;;5036018;28;20550;-78
2022/02/16 01:27:25;;;;;;;1.17;0.98;;;11.10;99.90;;;;;;5036060;28;20041;-78
2022/02/16 01:29:51;;;;;;;0.00;0.00;;;11.10;99.90;;;;;;5037737;28;20021;-79
2022/02/16 01:32:16;;;;;;;0.75;0.52;;;11.10;99.90;;;;;;5036224;28;20017;-77
2022/02/16 01:34:43;;;;;;;0.45;0.45;;;11.10;99.90;;;;;;5019051;28;20060;-76
2022/02/16 01:37:09;;;;;;;0.00;0.00;;;11.10;99.90;;;;;;5026423;28;20033;-78
2022/02/16 01:39:36;;;;;;;0.45;0.45;;;11.10;99.90;;;;;;5035803;28;20029;-77
2022/02/16 01:42:02;;;;;;;0.00;0.00;;;11.10;99.90;;;;;;5035237;28;20408;-76
2022/02/16 01:44:30;;;;;;;2.08;0.70;;;11.10;99.90;;;;;;5035978;28;20025;-77
2022/02/16 01:47:01;;;;;;;0.00;0.00;;;11.10;99.90;;;;;;5036563;28;20025;-78
2022/02/16 01:49:27;;;;;;;4.57;1.45;;;11.10;99.90;;;;;;5035419;28;20037;-77
2022/02/16 01:51:53;;;;;;;2.05;1.35;;;11.10;99.90;;;;;;5035696;28;20017;-75
2022/02/16 01:54:18;;;;;;;3.20;2.25;;;11.10;99.90;;;;;;5038585;28;20029;-76
2022/02/16 01:56:48;;;;;;;5.57;1.35;;;11.10;99.90;;;;;;5035793;28;20084;-75
2022/02/16 01:59:21;;;;;;;7.38;1.80;;;11.10;99.90;;;;;;5035797;28;20038;-77
2022/02/16 02:01:47;;;;;;;0.38;0.38;;;11.10;99.90;;;;;;5036937;28;20439;-76
2022/02/16 02:04:15;;;;;;;0.00;0.00;;;11.10;99.90;;;;;;5036034;28;20083;-77
2022/02/16 02:06:41;;;;;;;6.22;1.83;;;11.10;99.90;;;;;;5035858;28;20045;-77
2022/02/16 02:09:07;;;;;;;3.70;2.17;;;11.10;99.90;;;;;;5036154;28;20064;-74
2022/02/16 02:11:32;;;;;;;6.93;0.95;;;11.20;99.90;;;;;;5036921;28;20026;-73
2022/02/16 02:14:00;;;;;;;0.00;0.00;;;11.10;99.90;;;;;;5035602;28;20101;-77
2022/02/16 02:16:27;;;;;;;2.63;1.08;;;11.20;99.90;;;;;;5034691;28;20021;-76
2022/02/16 02:18:53;;;;;;;4.18;1.95;;;11.10;99.90;;;;;;5035440;28;20029;-77
2022/02/16 02:21:19;;;;;;;1.27;0.35;;;11.10;99.90;;;;;;5035470;28;20036;-78
2022/02/16 02:23:46;;;;;;;0.25;0.25;;;11.10;99.90;;;;;;5033421;28;20477;-76
2022/02/16 02:26:12;;;;;;;0.57;0.57;;;11.10;99.90;;;;;;5035310;28;20029;-74
2022/02/16 02:28:38;;;;;;;0.95;0.95;;;11.10;99.90;;;;;;5036267;28;20022;-76
2022/02/16 02:31:04;;;;;;;1.90;0.80;;;11.10;99.90;;;;;;5035343;28;20048;-77
2022/02/16 02:33:30;;;;;;;0.00;0.00;;;11.20;99.90;;;;;;5027549;28;20018;-75
2022/02/16 02:35:56;;;;;;;1.23;1.13;;;11.20;99.90;;;;;;5015813;28;20031;-78
2022/02/16 02:38:22;;;;;;;1.65;1.08;;;11.20;99.90;;;;;;5032678;28;20025;-76
2022/02/16 02:40:54;;;;;;;0.05;0.05;;;11.20;99.90;;;;;;5034608;28;20049;-80
2022/02/16 02:43:20;;;;;;;0.00;0.00;;;11.20;99.90;;;;;;5035056;28;20028;-78
2022/02/16 02:45:47;;;;;;;1.13;0.70;;;11.20;99.90;;;;;;5035788;28;20034;-76
2022/02/16 02:48:12;;;;;;;4.47;2.13;;;11.20;99.90;;;;;;5034643;28;20025;-76
2022/02/16 02:50:39;;;;;;;0.15;0.15;;;11.20;99.90;;;;;;5034338;28;20100;-77
2022/02/16 02:53:05;;;;;;;0.10;0.10;;;11.20;99.90;;;;;;5034192;28;20026;-78
2022/02/16 02:55:31;;;;;;;0.00;0.00;;;11.20;99.90;;;;;;5033194;28;20071;-77
2022/02/16 02:58:00;;;;;;;0.00;0.00;;;11.20;99.90;;;;;;5034771;28;20063;-77
2022/02/16 03:00:26;;;;;;;0.28;0.28;;;11.20;99.90;;;;;;5035236;28;20045;-77
2022/02/16 03:02:51;;;;;;;0.20;0.20;;;11.20;99.90;;;;;;5034229;28;20083;-77
2022/02/16 03:05:17;;;;;;;2.83;1.27;;;11.20;99.90;;;;;;5034390;28;20033;-77
2022/02/16 03:07:42;;;;;;;0.30;0.30;;;11.20;99.90;;;;;;5034038;28;20480;-76
2022/02/16 03:10:09;;;;;;;1.05;0.40;;;11.20;99.90;;;;;;5034340;28;20025;-77
2022/02/16 03:12:34;;;;;;;0.28;0.28;;;11.20;99.90;;;;;;5034033;28;20025;-77
2022/02/16 03:15:00;;;;;;;0.00;0.00;;;11.20;99.90;;;;;;5034782;28;20047;-77
2022/02/16 03:17:26;;;;;;;0.38;0.28;;;11.20;99.90;;;;;;5034670;28;20024;-75
2022/02/16 03:19:52;;;;;;;0.00;0.00;;;11.20;99.90;;;;;;5034281;28;20018;-77
2022/02/16 03:22:19;;;;;;;0.70;0.63;;;11.20;99.90;;;;;;5034181;28;20401;-77
2022/02/16 03:24:46;;;;;;;0.50;0.30;;;11.20;99.90;;;;;;5034741;28;20022;-75
2022/02/16 03:27:11;;;;;;;1.25;0.85;;;11.20;99.90;;;;;;5033706;28;20503;-76
2022/02/16 03:29:37;;;;;;;0.20;0.20;;;11.20;99.90;;;;;;5033922;28;20017;-74
2022/02/16 03:32:03;;;;;;;0.88;0.88;;;11.20;99.90;;;;;;5033920;28;20029;-76
2022/02/16 03:34:29;;;;;;;0.15;0.15;;;11.30;99.90;;;;;;5028313;28;20125;-75
2022/02/16 03:36:55;;;;;;;3.25;2.45;;;11.20;99.90;;;;;;5021166;28;20116;-77
2022/02/16 03:39:21;;;;;;;4.18;1.35;;;11.30;99.90;;;;;;5033570;28;20100;-77
2022/02/16 03:41:46;;;;;;;0.52;0.52;;;11.30;99.90;;;;;;5033012;28;20501;-78
2022/02/16 03:44:12;;;;;;;0.25;0.25;;;11.30;99.90;;;;;;5033777;28;20104;-76
2022/02/16 03:46:38;;;;;;;2.08;1.40;;;11.30;99.90;;;;;;5032600;28;20034;-77
2022/02/16 03:49:03;;;;;;;0.00;0.00;;;11.30;99.90;;;;;;5033379;28;20045;-77
2022/02/16 03:51:29;;;;;;;0.57;0.52;;;11.30;99.90;;;;;;5033108;28;20030;-76
2022/02/16 03:53:55;;;;;;;2.08;0.70;;;11.30;99.90;;;;;;5033169;28;20025;-77
2022/02/16 03:56:21;;;;;;;0.40;0.40;;;11.40;99.90;;;;;;5033700;28;20025;-77
2022/02/16 03:58:46;;;;;;;0.00;0.00;;;11.30;99.90;;;;;;5033470;28;20036;-77
2022/02/16 04:01:12;;;;;;;5.72;0.75;;;11.30;99.90;;;;;;5033234;28;20060;-77
2022/02/16 04:03:38;;;;;;;2.50;0.85;;;11.30;99.90;;;;;;5032903;28;20108;-75
2022/02/16 04:06:03;;;;;;;9.95;2.33;;;11.30;99.90;;;;;;5033348;28;20513;-74
2022/02/16 04:08:33;;;;;;;0.00;0.00;;;11.40;99.90;;;;;;5032705;28;20451;-78
2022/02/16 04:10:59;;;;;;;0.00;0.00;;;11.40;99.90;;;;;;5032030;28;20488;-76
2022/02/16 04:13:24;;;;;;;0.20;0.20;;;11.40;99.90;;;;;;5033541;28;20078;-77
2022/02/16 04:15:50;;;;;;;0.20;0.20;;;11.40;99.90;;;;;;5033047;28;20523;-77
2022/02/16 04:18:16;;;;;;;0.20;0.20;;;11.40;99.90;;;;;;5033003;28;20029;-76
2022/02/16 04:20:41;;;;;;;1.15;0.73;;;11.40;99.90;;;;;;5032050;28;20458;-77
2022/02/16 04:23:09;;;;;;;0.00;0.00;;;11.40;99.90;;;;;;5032903;28;20105;-76
2022/02/16 04:25:35;;;;;;;0.00;0.00;;;11.40;99.90;;;;;;5033278;28;20120;-74
2022/02/16 04:28:02;;;;;;;2.42;0.82;;;11.40;99.90;;;;;;5033401;28;20496;-76
2022/02/16 04:30:28;;;;;;;0.10;0.08;;;11.50;99.90;;;;;;5033355;28;20045;-78
2022/02/16 04:32:54;;;;;;;0.00;0.00;;;11.40;99.90;;;;;;5032884;28;20029;-78
2022/02/16 04:35:19;;;;;;;0.00;0.00;;;11.40;99.90;;;;;;5031086;28;20033;-77
2022/02/16 04:37:45;;;;;;;0.00;0.00;;;11.50;99.90;;;;;;5031761;28;20029;-75
2022/02/16 04:40:11;;;;;;;0.00;0.00;;;11.50;99.90;;;;;;5032029;28;20488;-77
2022/02/16 04:42:37;;;;;;;0.00;0.00;;;11.50;99.90;;;;;;5033055;28;20057;-75
2022/02/16 04:45:04;;;;;;;0.52;0.43;;;11.50;99.90;;;;;;5031712;28;20049;-77
2022/02/16 04:47:30;;;;;;;0.00;0.00;;;11.50;99.90;;;;;;5033287;28;20033;-78
2022/02/16 04:49:55;;;;;;;0.00;0.00;;;11.50;99.90;;;;;;5032660;28;20021;-76
2022/02/16 04:52:21;;;;;;;0.08;0.08;;;11.50;99.90;;;;;;5032805;28;20022;-76
2022/02/16 04:54:47;;;;;;;0.03;0.03;;;11.50;99.90;;;;;;5035336;28;20018;-76
2022/02/16 04:57:13;;;;;;;0.55;0.35;;;11.50;99.90;;;;;;5036923;28;20032;-77
2022/02/16 04:59:39;;;;;;;0.22;0.22;;;11.50;99.90;;;;;;5036746;28;20477;-77
2022/02/16 05:02:04;;;;;;;0.30;0.30;;;11.50;99.90;;;;;;5038060;28;20037;-76
2022/02/16 05:04:30;;;;;;;0.15;0.13;;;11.50;99.90;;;;;;5036676;28;20392;-78
2022/02/16 05:06:56;;;;;;;0.15;0.15;;;11.50;99.90;;;;;;5036728;28;20056;-77
2022/02/16 05:09:22;;;;;;;0.13;0.13;;;11.50;99.90;;;;;;5036082;28;20528;-77
2022/02/16 05:11:47;;;;;;;0.00;0.00;;;11.50;99.90;;;;;;5028931;28;20078;-78
2022/02/16 05:14:13;;;;;;;1.60;0.20;;;11.50;99.90;;;;;;5016754;28;20029;-77
2022/02/16 05:16:39;;;;;;;4.55;1.52;;;11.50;99.90;;;;;;5015299;28;20042;-75
2022/02/16 05:19:05;;;;;;;0.20;0.20;;;11.50;99.90;;;;;;5017202;28;20072;-76
2022/02/16 05:21:32;;;;;;;0.00;0.00;;;11.50;99.90;;;;;;5016652;28;20036;-76
2022/02/16 05:23:58;;;;;;;0.00;0.00;;;11.50;99.90;;;;;;5016441;28;20026;-77
2022/02/16 05:26:23;;;;;;;0.00;0.00;;;11.50;99.90;;;;;;5016820;28;20038;-77
2022/02/16 05:28:49;;;;;;;5.05;1.77;;;11.50;99.90;;;;;;5031130;28;20113;-77
2022/02/16 05:31:15;;;;;;;2.45;0.90;;;11.40;99.90;;;;;;5016626;28;20030;-75
2022/02/16 05:33:40;;;;;;;1.45;0.63;;;11.50;99.90;;;;;;5016869;28;20493;-76
2022/02/16 05:36:06;;;;;;;0.00;0.00;;;11.50;99.90;;;;;;5016040;28;20058;-75
2022/02/16 05:38:33;;;;;;;0.15;0.15;;;11.50;99.90;;;;;;5015183;28;20489;-76
2022/02/16 05:40:59;;;;;;;2.63;1.55;;;11.50;99.90;;;;;;5015117;28;20053;-77
2022/02/16 05:43:24;;;;;;;0.00;0.00;;;11.50;99.90;;;;;;5027537;28;20031;-77
2022/02/16 05:45:50;;;;;;;6.50;1.20;;;11.50;99.90;;;;;;5035955;28;20443;-76
2022/02/16 05:48:20;;;;;;;0.13;0.13;;;11.50;99.90;;;;;;5035025;28;20100;-76
2022/02/16 05:50:49;;;;;;;0.00;0.00;;;11.60;99.90;;;;;;5035348;28;20029;-76
2022/02/16 05:53:15;;;;;;;0.00;0.00;;;11.60;99.90;;;;;;5035064;28;20037;-77
2022/02/16 05:55:41;;;;;;;0.52;0.17;;;11.60;99.90;;;;;;5035616;28;20036;-75
2022/02/16 05:58:07;;;;;;;5.53;1.98;;;11.70;99.90;;;;;;5035228;28;20021;-76
2022/02/16 06:00:32;;;;;;;1.17;0.90;;;11.80;99.90;;;;;;5035633;28;20060;-75
2022/02/16 06:02:58;;;;;;;0.00;0.00;;;11.80;99.90;;;;;;5035286;28;20566;-77
2022/02/16 06:05:24;;;;;;;0.73;0.52;;;11.80;99.90;;;;;;5033513;28;20033;-76
2022/02/16 06:07:49;;;;;;;0.35;0.35;;;11.70;99.90;;;;;;5035089;28;20032;-76
2022/02/16 06:10:15;;;;;;;8.57;3.40;;;11.70;99.90;;;;;;5035425;28;20035;-77
2022/02/16 06:12:41;;;;;;;4.63;2.33;;;11.70;99.90;;;;;;5035000;28;20024;-77
2022/02/16 06:15:09;;;;;;;2.72;0.93;;;11.70;99.90;;;;;;5033708;28;20476;-75
2022/02/16 06:17:34;;;;;;;0.10;0.10;;;11.70;99.90;;;;;;5034982;28;20448;-77
2022/02/16 06:20:00;;;;;;;5.57;1.23;;;11.70;99.90;;;;;;5034784;28;20017;-76
2022/02/16 06:22:26;;;;;;;0.45;0.32;;;11.70;99.90;;;;;;5034698;28;20022;-76
2022/02/16 06:24:52;;;;;;;1.05;0.75;;;11.60;99.90;;;;;;5034869;28;20033;-78
2022/02/16 06:27:18;;;;;;;0.68;0.68;;;11.70;99.90;;;;;;5034859;28;20030;-75
2022/02/16 06:29:44;;;;;;;0.08;0.08;;;11.70;99.90;;;;;;5033297;28;20037;-77
2022/02/16 06:32:09;;;;;;;1.08;0.85;;;11.70;99.90;;;;;;5033641;28;20026;-76
2022/02/16 06:34:35;;;;;;;7.10;1.75;;;11.70;99.90;;;;;;5034975;28;20108;-78
2022/02/16 06:37:01;;;;;;;0.63;0.60;;;11.70;99.90;;;;;;5031556;28;20033;-78
2022/02/16 06:39:26;;;;;;;0.32;0.32;;;11.80;99.90;;;;;;5033168;28;20030;-76
2022/02/16 06:41:52;;;;;;;2.30;1.55;;;11.80;99.90;;;;;;5033972;28;20047;-77
2022/02/16 06:44:17;;;;;;;12.05;0.65;;;11.80;99.90;;;;;;5034432;28;20446;-76
2022/02/16 06:46:43;;;;;;;1.85;1.45;;;11.80;99.90;;;;;;5034496;28;20112;-75
2022/02/16 06:49:09;;;;;;;1.80;1.17;;;11.80;99.90;;;;;;5032370;28;20113;-76
2022/02/16 06:51:34;;;;;;;0.70;0.45;;;11.80;99.90;;;;;;5034451;28;20035;-77
2022/02/16 06:54:00;;;;;;;9.10;2.13;;;11.70;99.90;;;;;;5033466;28;20044;-77
2022/02/16 06:56:28;;;;;;;0.10;0.10;;;11.80;99.90;;;;;;5033783;28;20021;-75
2022/02/16 06:58:54;;;;;;;4.70;1.55;;;11.70;99.90;;;;;;5034021;28;20467;-77
2022/02/16 07:01:19;;;;;;;1.42;1.13;;;11.60;99.90;;;;;;5034115;28;20036;-76
2022/02/16 07:03:45;;;;;;;0.50;0.50;;;11.60;99.90;;;;;;5033268;28;20037;-77
2022/02/16 07:06:11;;;;;;;13.60;3.50;;;11.60;99.90;;;;;;5032948;28;20060;-76
2022/02/16 07:08:37;;;;;;;2.03;1.23;;;11.50;99.90;;;;;;5031472;28;20022;-76
2022/02/16 07:11:03;;;;;;;0.15;0.15;;;11.50;99.90;;;;;;5032132;28;20027;-76
2022/02/16 07:13:29;;;;;;;4.22;0.80;;;11.50;99.90;;;;;;5031332;28;20018;-76
2022/02/16 07:15:54;;;;;;;0.77;0.77;;;11.60;99.90;;;;;;5030297;28;20082;-75
2022/02/16 07:18:20;;;;;;;0.17;0.17;;;11.60;99.90;;;;;;5030568;28;20083;-72
2022/02/16 07:20:46;;;;;;;3.67;2.88;;;11.70;99.90;;;;;;5032631;28;20029;-76
2022/02/16 07:23:12;;;;;;;2.60;2.05;;;11.70;99.90;;;;;;5031419;28;20032;-76
2022/02/16 07:25:38;;;;;;;0.63;0.63;;;11.70;99.90;;;;;;5031005;28;20033;-76
2022/02/16 07:28:06;;;;;;;0.93;0.93;;;11.80;99.90;;;;;;5031784;28;20025;-75
2022/02/16 07:30:32;;;;;;;3.83;2.08;;;11.80;99.90;;;;;;5031865;28;20017;-76
2022/02/16 07:32:58;;;;;;;0.10;0.10;;;11.80;99.90;;;;;;5030116;28;20022;-76
2022/02/16 07:35:23;;;;;;;1.95;0.90;;;11.80;99.90;;;;;;5032102;28;20377;-76
2022/02/16 07:37:51;;;;;;;2.22;1.65;;;11.80;99.90;;;;;;5029969;28;20064;-76
2022/02/16 07:40:17;;;;;;;6.72;2.38;;;11.70;99.90;;;;;;5030137;28;20124;-76
2022/02/16 07:42:43;;;;;;;3.40;1.45;;;11.60;99.90;;;;;;5030503;28;20037;-76
2022/02/16 07:45:09;;;;;;;18.52;3.90;;;11.60;99.90;;;;;;5031742;28;20026;-75
2022/02/16 07:47:35;;;;;;;10.05;1.13;;;11.60;99.90;;;;;;5030620;28;20507;-75
2022/02/16 07:50:02;;;;;;;4.80;2.15;;;11.60;99.90;;;;;;5028307;28;20030;-76
2022/02/16 07:52:31;;;;;;;7.35;2.42;;;11.60;99.90;;;;;;5026220;28;20103;-77
2022/02/16 07:54:58;;;;;;;2.10;1.33;;;11.70;99.90;;;;;;5031381;28;20105;-76
2022/02/16 07:57:23;;;;;;;0.00;0.00;;;11.60;99.90;;;;;;5016243;28;20036;-76
2022/02/16 07:59:49;;;;;;;0.63;0.63;;;11.60;99.90;;;;;;5026475;28;20033;-74
2022/02/16 08:02:15;;;;;;;2.70;1.63;;;11.60;99.90;;;;;;5022391;28;20044;-77
2022/02/16 08:04:40;;;;;;;0.65;0.65;;;11.70;99.90;;;;;;5029541;28;20021;-75
2022/02/16 08:07:06;;;;;;;0.10;0.10;;;11.70;99.90;;;;;;5029211;28;20026;-79
2022/02/16 08:09:32;;;;;;;0.00;0.00;;;11.70;99.90;;;;;;5029196;28;20014;-75
2022/02/16 08:11:58;;;;;;;6.35;2.28;;;11.70;99.90;;;;;;5026699;28;20531;-78
2022/02/16 08:14:24;;;;;;;0.85;0.85;;;11.80;99.90;;;;;;5024868;28;20067;-75
2022/02/16 08:16:49;;;;;;;8.10;2.20;;;11.80;99.90;;;;;;5029619;28;20112;-77
2022/02/16 08:19:15;;;;;;;0.95;0.77;;;11.90;99.90;;;;;;5021966;28;20030;-76
2022/02/16 08:21:43;;;;;;;20.70;2.85;;;11.80;99.90;;;;;;5026163;28;20029;-77
2022/02/16 08:24:11;;;;;;;0.00;0.00;;;11.90;99.90;;;;;;5017554;28;20096;-78
2022/02/16 08:26:37;;;;;;;6.13;1.95;;;11.90;99.90;;;;;;5010452;28;20092;-78
2022/02/16 08:29:03;;;;;;;0.65;0.65;;;11.90;99.90;;;;;;5016478;28;20026;-76
2022/02/16 08:31:29;;;;;;;3.70;1.75;;;11.90;99.90;;;;;;5029612;28;20531;-78
2022/02/16 08:33:55;;;;;;;0.75;0.75;;;11.90;99.90;;;;;;5029882;28;20021;-77
2022/02/16 08:36:20;;;;;;;0.03;0.03;;;11.90;99.90;;;;;;5029794;28;20132;-79
2022/02/16 08:38:46;;;;;;;3.08;1.23;;;11.90;99.90;;;;;;5029736;28;20033;-76
2022/02/16 08:41:15;;;;;;;0.95;0.80;;;11.90;99.90;;;;;;5030204;28;20047;-76
2022/02/16 08:43:42;;;;;;;1.17;1.02;;;12.00;99.90;;;;;;5029515;28;20060;-78
2022/02/16 08:46:08;;;;;;;0.00;0.00;;;11.90;99.90;;;;;;5030802;28;20025;-77
2022/02/16 08:48:34;;;;;;;0.80;0.65;;;11.90;99.90;;;;;;5026534;28;20038;-78
2022/02/16 08:51:00;;;;;;;0.93;0.85;;;11.90;99.90;;;;;;5018771;28;20052;-75
2022/02/16 08:53:27;;;;;;;7.32;3.47;;;12.00;99.90;;;;;;5029699;28;20029;-73
2022/02/16 08:55:58;;;;;;;0.00;0.00;;;11.90;99.90;;;;;;5030478;28;20042;-75
2022/02/16 08:58:23;;;;;;;0.00;0.00;;;11.90;99.90;;;;;;5030009;28;20017;-79
2022/02/16 09:00:49;;;;;;;0.55;0.55;;;11.90;99.90;;;;;;5029709;28;20036;-79
2022/02/16 09:03:16;;;;;;;0.82;0.82;;;12.00;99.90;;;;;;5026871;28;20501;-78
2022/02/16 09:05:42;;;;;;;0.85;0.77;;;12.00;99.90;;;;;;5030338;28;20120;-75
2022/02/16 09:08:08;;;;;;;0.00;0.00;;;12.00;99.90;;;;;;5024519;28;20514;-76
2022/02/16 09:10:33;;;;;;;0.88;0.88;;;12.10;99.90;;;;;;5029830;28;20025;-78
2022/02/16 09:12:59;;;;;;;1.38;0.68;;;12.20;99.90;;;;;;5035412;28;20025;-78
2022/02/16 09:15:26;;;;;;;0.00;0.00;;;12.20;99.90;;;;;;5037139;28;20123;-76
2022/02/16 09:17:56;;;;;;;4.82;2.30;;;12.20;99.90;;;;;;5027741;28;20575;-75
2022/02/16 09:20:23;;;;;;;1.55;1.10;;;12.20;99.90;;;;;;5028305;28;20049;-74
2022/02/16 09:22:48;;;;;;;18.77;0.80;;;12.20;99.90;;;;;;5025212;28;20022;-76
2022/02/16 09:25:14;;;;;;;5.10;1.92;;;12.10;99.90;;;;;;5013086;28;20500;-77
2022/02/16 09:27:40;;;;;;;0.00;0.00;;;12.10;99.90;;;;;;5015166;28;20026;-76
2022/02/16 09:30:07;;;;;;;0.08;0.08;;;12.00;99.90;;;;;;5011844;28;20037;-74
2022/02/16 09:32:32;;;;;;;0.17;0.10;;;12.00;99.90;;;;;;5022362;28;20025;-77
2022/02/16 09:34:58;;;;;;;1.95;0.85;;;11.90;99.90;;;;;;5041792;28;20373;-76
2022/02/16 09:37:24;;;;;;;0.45;0.43;;;11.80;99.90;;;;;;5031725;28;20083;-76
2022/02/16 09:39:51;;;;;;;1.55;1.08;;;11.80;99.90;;;;;;5030806;28;20412;-78
2022/02/16 09:42:17;;;;;;;2.30;0.75;;;11.80;99.90;;;;;;5030333;28;20049;-76
2022/02/16 09:45:01;;;;;;;0.90;0.88;;;11.80;99.90;;;;;;5031140;28;20120;-75
2022/02/16 09:47:29;;;;;;;1.02;0.98;;;11.80;99.90;;;;;;5032467;28;20045;-75
2022/02/16 09:49:55;;;;;;;1.92;1.65;;;11.80;99.90;;;;;;5031574;28;20031;-76
2022/02/16 09:52:21;;;;;;;0.57;0.57;;;11.80;99.90;;;;;;5032682;28;20455;-74
2022/02/16 09:54:47;;;;;;;1.40;1.30;;;11.90;99.90;;;;;;5029956;28;20099;-77
2022/02/16 09:57:13;;;;;;;1.98;1.55;;;11.90;99.90;;;;;;5029001;28;20534;-77
2022/02/16 09:59:38;;;;;;;1.55;1.10;;;11.90;99.90;;;;;;5032211;28;20055;-73
2022/02/16 10:02:09;;;;;;;0.57;0.57;;;12.00;99.90;;;;;;5023911;28;20045;-77
2022/02/16 10:04:37;;;;;;;1.50;1.02;;;12.10;99.90;;;;;;5031880;28;20021;-77
2022/02/16 10:07:22;;;;;;;13.27;2.35;;;12.20;99.90;;;;;;5032638;28;20026;-79
2022/02/16 10:09:48;;;;;;;12.13;3.42;;;12.20;99.90;;;;;;5032564;28;20103;-75
2022/02/16 10:12:14;;;;;;;2.15;0.60;;;12.20;99.90;;;;;;5035827;28;20151;-76
2022/02/16 10:14:40;;;;;;;0.73;0.45;;;12.10;99.90;;;;;;5033097;28;20108;-75
2022/02/16 10:17:22;;;;;;;0.03;0.03;;;12.10;99.90;;;;;;5032823;28;20151;-77
2022/02/16 10:19:50;;;;;;;4.03;2.90;;;12.10;99.90;;;;;;5033173;28;20021;-77
2022/02/16 10:22:17;;;;;;;3.80;2.08;;;12.10;99.90;;;;;;5031667;28;20487;-76
2022/02/16 10:24:46;;;;;;;2.20;1.10;;;12.10;99.90;;;;;;5031880;28;20043;-76
2022/02/16 10:27:13;;;;;;;0.00;0.00;;;12.10;99.90;;;;;;5031970;28;20508;-77
2022/02/16 10:29:41;;;;;;;3.50;1.30;;;12.10;99.90;;;;;;5031569;28;20112;-77
2022/02/16 10:32:08;;;;;;;2.72;1.88;;;12.00;99.90;;;;;;5031587;28;20062;-73
2022/02/16 10:34:54;;;;;;;0.77;0.63;;;12.00;99.90;;;;;;5032367;28;20079;-77
2022/02/16 10:37:40;;;;;;;1.77;0.35;;;12.00;99.90;;;;;;5032055;28;20075;-77
2022/02/16 10:40:10;;;;;;;0.00;0.00;;;12.00;99.90;;;;;;5032017;28;20041;-75
2022/02/16 10:42:53;;;;;;;6.13;1.90;;;12.00;99.90;;;;;;5032204;28;20451;-77
2022/02/16 10:45:21;;;;;;;1.13;1.13;;;12.00;99.90;;;;;;5032616;28;20432;-74
2022/02/16 10:48:04;;;;;;;5.38;0.63;;;12.00;99.90;;;;;;5034728;28;20021;-77
2022/02/16 10:50:37;;;;;;;1.08;1.02;;;12.10;99.90;;;;;;5031896;28;20034;-74
2022/02/16 10:53:07;;;;;;;0.65;0.65;;;12.20;99.90;;;;;;5031443;28;20400;-74
2022/02/16 10:55:46;;;;;;;3.78;2.28;;;12.30;99.90;;;;;;5031756;28;20036;-75
2022/02/16 10:58:17;;;;;;;5.40;2.55;;;12.30;99.90;;;;;;5029472;28;20460;-77
2022/02/16 11:00:45;;;;;;;8.10;3.45;;;12.40;99.90;;;;;;5032340;28;20091;-76
2022/02/16 11:03:47;;;;;;;0.13;0.13;;;12.40;99.90;;;;;;5030563;28;20032;-74
2022/02/16 11:06:13;;;;;;;22.58;2.20;;;12.40;99.90;;;;;;5035556;28;20022;-74
2022/02/16 11:08:40;;;;;;;1.58;1.48;;;12.50;99.90;;;;;;5057062;28;20013;-76
2022/02/16 11:11:07;;;;;;;8.43;3.03;;;12.50;99.90;;;;;;5036622;28;20041;-75
2022/02/16 11:13:36;;;;;;;35.33;6.20;;;12.40;99.90;;;;;;5034652;28;20021;-75
2022/02/16 11:16:03;;;;;;;0.35;0.35;;;12.40;99.90;;;;;;5046268;28;20029;-72
2022/02/16 11:18:46;;;;;;;4.55;2.20;;;12.40;99.90;;;;;;5033086;28;20519;-78
2022/02/16 11:21:22;;;;;;;0.20;0.20;;;12.40;99.90;;;;;;5045358;28;20071;-76
2022/02/16 11:23:53;;;;;;;1.08;1.08;;;12.40;99.90;;;;;;5029752;28;20026;-77
2022/02/16 11:26:41;;;;;;;0.25;0.25;;;12.40;99.90;;;;;;5031858;28;20030;-73
2022/02/16 11:29:29;;;;;;;0.75;0.75;;;12.30;99.90;;;;;;5029948;28;20515;-73
2022/02/16 11:32:13;;;;;;;0.82;0.82;;;12.30;99.90;;;;;;5032093;28;20036;-74
2022/02/16 11:34:42;;;;;;;15.70;2.53;;;12.30;99.90;;;;;;5018605;28;20013;-75
2022/02/16 11:37:08;;;;;;;0.00;0.00;;;12.30;99.90;;;;;;5030218;28;20055;-78
2022/02/16 11:39:49;;;;;;;0.55;0.55;;;12.30;99.90;;;;;;5029559;28;20116;-74
2022/02/16 11:42:21;;;;;;;1.02;0.98;;;12.30;99.90;;;;;;5027637;28;20576;-73
2022/02/16 11:44:52;;;;;;;0.30;0.30;;;12.20;99.90;;;;;;5031258;28;20029;-74
2022/02/16 11:47:33;;;;;;;0.35;0.35;;;12.20;99.90;;;;;;5033649;28;20083;-78
2022/02/16 11:50:12;;;;;;;3.70;2.10;;;12.20;99.90;;;;;;5030341;28;20440;-74
2022/02/16 11:52:50;;;;;;;0.20;0.20;;;12.10;99.90;;;;;;5030523;28;20045;-75
2022/02/16 11:55:33;;;;;;;1.85;1.20;;;12.10;99.90;;;;;;5030538;28;20125;-75
2022/02/16 11:58:01;;;;;;;5.55;2.70;;;12.10;99.90;;;;;;5030960;28;20121;-75
2022/02/16 12:00:36;;;;;;;3.40;2.45;;;12.10;99.90;;;;;;5029070;28;20029;-78
2022/02/16 12:03:07;;;;;;;2.60;1.88;;;12.10;99.90;;;;;;5030356;28;20574;-77
2022/02/16 12:05:55;;;;;;;2.53;1.65;;;12.10;99.90;;;;;;5029682;28;20815;-76
2022/02/16 12:08:55;;;;;;;2.28;0.60;;;12.10;99.90;;;;;;5021450;28;20029;-74
2022/02/16 12:11:29;;;;;;;3.30;2.40;;;12.10;99.90;;;;;;5022975;28;20033;-74
2022/02/16 12:14:12;;;;;;;0.85;0.77;;;12.10;99.90;;;;;;5029434;28;20030;-76
2022/02/16 12:16:44;;;;;;;3.72;1.88;;;12.00;99.90;;;;;;5028895;28;20124;-74
2022/02/16 12:19:16;;;;;;;3.75;1.40;;;12.00;99.90;;;;;;5029985;28;20030;-74
2022/02/16 12:21:51;;;;;;;13.88;4.43;;;12.00;99.90;;;;;;5028120;28;20076;-74
2022/02/16 12:24:19;;;;;;;7.47;3.00;;;12.10;99.90;;;;;;5027525;28;20075;-75
2022/02/16 12:26:50;;;;;;;0.10;0.10;;;12.10;99.90;;;;;;5031912;28;20039;-75
2022/02/16 12:29:18;;;;;;;1.20;1.10;;;12.20;99.90;;;;;;5026396;28;20073;-74
2022/02/16 12:31:46;;;;;;;4.22;1.77;;;12.20;99.90;;;;;;5027422;28;20017;-74
2022/02/16 12:34:17;;;;;;;5.47;2.05;;;12.30;99.90;;;;;;5026649;28;20041;-74
2022/02/16 12:36:51;;;;;;;1.95;1.77;;;12.30;99.90;;;;;;5022676;28;20084;-75
2022/02/16 12:39:17;;;;;;;1.88;0.90;;;12.40;99.90;;;;;;5026522;28;20029;-76
2022/02/16 12:41:46;;;;;;;1.58;1.48;;;12.40;99.90;;;;;;5027994;28;20539;-76
2022/02/16 12:44:15;;;;;;;3.92;2.85;;;12.40;99.90;;;;;;5027054;28;20025;-75
2022/02/16 12:46:47;;;;;;;12.98;2.53;;;12.40;99.90;;;;;;5027592;28;20029;-75
2022/02/16 12:49:17;;;;;;;9.20;1.17;;;12.40;99.90;;;;;;5028643;28;20024;-75